sensor_id;sensor_type;location;lat;lon;timestamp;pressure;altitude;pressure_sealevel;temperature;humidity
44138;BME280;29800;55.942;37.314;2023-02-23T00:00:47;99374.78;;;-10.63;50.80
44138;BME280;29800;55.942;37.314;2023-02-23T00:03:13;99379.13;;;-10.73;51.34
44138;BME280;29800;55.942;37.314;2023-02-23T00:05:39;99376.13;;;-10.80;51.25
44138;BME280;29800;55.942;37.314;2023-02-23T00:08:05;99380.09;;;-10.85;51.59
44138;BME280;29800;55.942;37.314;2023-02-23T00:10:31;99382.63;;;-10.95;51.83
44138;BME280;29800;55.942;37.314;2023-02-23T00:12:58;99383.63;;;-11.07;51.69
44138;BME280;29800;55.942;37.314;2023-02-23T00:15:26;99386.13;;;-11.17;52.46
44138;BME280;29800;55.942;37.314;2023-02-23T00:17:54;99383.38;;;-11.27;52.53
44138;BME280;29800;55.942;37.314;2023-02-23T00:20:21;99383.47;;;-11.29;52.72
44138;BME280;29800;55.942;37.314;2023-02-23T00:22:56;99388.66;;;-11.16;52.59
44138;BME280;29800;55.942;37.314;2023-02-23T00:25:24;99392.38;;;-11.07;52.23
44138;BME280;29800;55.942;37.314;2023-02-23T00:27:51;99391.53;;;-11.07;52.31
44138;BME280;29800;55.942;37.314;2023-02-23T00:30:18;99392.63;;;-11.10;52.43
44138;BME280;29800;55.942;37.314;2023-02-23T00:32:49;99396.84;;;-11.07;52.51
44138;BME280;29800;55.942;37.314;2023-02-23T00:35:17;99399.13;;;-11.14;52.08
44138;BME280;29800;55.942;37.314;2023-02-23T00:37:45;99396.47;;;-11.14;52.04
44138;BME280;29800;55.942;37.314;2023-02-23T00:40:16;99404.28;;;-11.13;52.37
44138;BME280;29800;55.942;37.314;2023-02-23T00:42:43;99402.34;;;-11.22;52.54
44138;BME280;29800;55.942;37.314;2023-02-23T00:45:13;99403.44;;;-11.13;52.50
44138;BME280;29800;55.942;37.314;2023-02-23T00:47:42;99406.06;;;-11.02;52.43
44138;BME280;29800;55.942;37.314;2023-02-23T00:50:15;99406.06;;;-11.02;52.50
44138;BME280;29800;55.942;37.314;2023-02-23T00:52:43;99410.16;;;-11.09;52.62
44138;BME280;29800;55.942;37.314;2023-02-23T00:55:11;99409.81;;;-11.16;52.17
44138;BME280;29800;55.942;37.314;2023-02-23T00:57:38;99415.44;;;-11.20;52.96
44138;BME280;29800;55.942;37.314;2023-02-23T01:00:08;99413.16;;;-11.25;52.79
44138;BME280;29800;55.942;37.314;2023-02-23T01:02:42;99413.50;;;-11.18;52.91
44138;BME280;29800;55.942;37.314;2023-02-23T01:05:09;99422.44;;;-11.08;52.49
44138;BME280;29800;55.942;37.314;2023-02-23T01:07:37;99418.34;;;-11.01;52.03
44138;BME280;29800;55.942;37.314;2023-02-23T01:10:04;99419.28;;;-11.02;52.25
44138;BME280;29800;55.942;37.314;2023-02-23T01:12:48;99418.81;;;-11.07;52.28
44138;BME280;29800;55.942;37.314;2023-02-23T01:15:15;99418.69;;;-11.17;52.67
44138;BME280;29800;55.942;37.314;2023-02-23T01:17:42;99417.38;;;-11.11;52.45
44138;BME280;29800;55.942;37.314;2023-02-23T01:20:11;99417.16;;;-11.08;52.07
44138;BME280;29800;55.942;37.314;2023-02-23T01:22:47;99416.06;;;-11.05;52.25
44138;BME280;29800;55.942;37.314;2023-02-23T01:25:15;99414.88;;;-11.01;52.36
44138;BME280;29800;55.942;37.314;2023-02-23T01:27:42;99420.16;;;-11.01;51.82
44138;BME280;29800;55.942;37.314;2023-02-23T01:30:10;99420.97;;;-11.01;52.28
44138;BME280;29800;55.942;37.314;2023-02-23T01:32:37;99419.88;;;-10.87;51.83
44138;BME280;29800;55.942;37.314;2023-02-23T01:35:06;99428.44;;;-10.72;51.52
44138;BME280;29800;55.942;37.314;2023-02-23T01:37:35;99426.03;;;-10.64;50.98
44138;BME280;29800;55.942;37.314;2023-02-23T01:40:19;99429.13;;;-10.59;51.53
44138;BME280;29800;55.942;37.314;2023-02-23T01:43:05;99426.25;;;-10.67;50.99
44138;BME280;29800;55.942;37.314;2023-02-23T01:45:40;99420.13;;;-10.67;51.20
44138;BME280;29800;55.942;37.314;2023-02-23T01:48:10;99422.41;;;-10.74;51.81
44138;BME280;29800;55.942;37.314;2023-02-23T01:50:46;99421.22;;;-10.70;51.62
44138;BME280;29800;55.942;37.314;2023-02-23T01:53:15;99417.59;;;-10.69;51.68
44138;BME280;29800;55.942;37.314;2023-02-23T01:55:42;99426.25;;;-10.67;51.28
44138;BME280;29800;55.942;37.314;2023-02-23T01:58:12;99433.84;;;-10.62;51.35
44138;BME280;29800;55.942;37.314;2023-02-23T02:00:50;99437.31;;;-10.62;50.95
44138;BME280;29800;55.942;37.314;2023-02-23T02:03:35;99423.63;;;-10.67;50.79
44138;BME280;29800;55.942;37.314;2023-02-23T02:06:04;99432.03;;;-10.84;51.52
44138;BME280;29800;55.942;37.314;2023-02-23T02:08:35;99434.22;;;-10.89;51.64
44138;BME280;29800;55.942;37.314;2023-02-23T02:11:15;99434.91;;;-10.87;51.94
44138;BME280;29800;55.942;37.314;2023-02-23T02:17:03;99445.84;;;-10.81;51.71
44138;BME280;29800;55.942;37.314;2023-02-23T02:19:58;99445.03;;;-10.81;51.29
44138;BME280;29800;55.942;37.314;2023-02-23T02:32:08;99450.56;;;-10.73;51.34
44138;BME280;29800;55.942;37.314;2023-02-23T02:37:55;99469.06;;;-10.73;50.80
44138;BME280;29800;55.942;37.314;2023-02-23T02:43:15;99461.13;;;-10.84;51.15
44138;BME280;29800;55.942;37.314;2023-02-23T02:45:55;99474.72;;;-10.78;50.95
44138;BME280;29800;55.942;37.314;2023-02-23T02:48:47;99474.94;;;-10.58;50.76
44138;BME280;29800;55.942;37.314;2023-02-23T02:51:27;99476.28;;;-10.75;50.89
44138;BME280;29800;55.942;37.314;2023-02-23T02:56:24;99471.22;;;-11.01;51.70
44138;BME280;29800;55.942;37.314;2023-02-23T02:58:54;99461.59;;;-11.02;51.71
44138;BME280;29800;55.942;37.314;2023-02-23T03:01:20;99463.16;;;-10.99;51.61
44138;BME280;29800;55.942;37.314;2023-02-23T03:04:21;99473.63;;;-10.86;51.64
44138;BME280;29800;55.942;37.314;2023-02-23T03:07:19;99472.19;;;-10.91;51.73
44138;BME280;29800;55.942;37.314;2023-02-23T03:16:52;99478.91;;;-11.09;51.73
44138;BME280;29800;55.942;37.314;2023-02-23T03:19:54;99474.06;;;-11.15;52.07
44138;BME280;29800;55.942;37.314;2023-02-23T03:22:55;99480.13;;;-11.13;51.92
44138;BME280;29800;55.942;37.314;2023-02-23T03:25:49;99480.81;;;-11.11;52.00
44138;BME280;29800;55.942;37.314;2023-02-23T03:28:45;99480.38;;;-11.05;51.82
44138;BME280;29800;55.942;37.314;2023-02-23T03:31:42;99483.81;;;-11.16;51.90
44138;BME280;29800;55.942;37.314;2023-02-23T03:34:39;99483.94;;;-11.17;51.73
44138;BME280;29800;55.942;37.314;2023-02-23T03:37:34;99486.66;;;-11.30;51.91
44138;BME280;29800;55.942;37.314;2023-02-23T03:40:27;99476.94;;;-11.30;51.79
44138;BME280;29800;55.942;37.314;2023-02-23T03:43:17;99493.56;;;-11.16;51.97
44138;BME280;29800;55.942;37.314;2023-02-23T03:46:06;99485.88;;;-11.08;51.21
44138;BME280;29800;55.942;37.314;2023-02-23T03:48:56;99489.50;;;-10.98;50.54
44138;BME280;29800;55.942;37.314;2023-02-23T03:51:46;99485.91;;;-10.97;51.10
44138;BME280;29800;55.942;37.314;2023-02-23T03:54:40;99501.00;;;-10.99;51.03
44138;BME280;29800;55.942;37.314;2023-02-23T03:57:30;99509.19;;;-11.13;50.97
44138;BME280;29800;55.942;37.314;2023-02-23T04:00:24;99508.56;;;-11.17;51.31
44138;BME280;29800;55.942;37.314;2023-02-23T04:03:15;99507.72;;;-11.17;51.18
44138;BME280;29800;55.942;37.314;2023-02-23T04:06:01;99505.69;;;-11.14;51.22
44138;BME280;29800;55.942;37.314;2023-02-23T04:08:47;99506.16;;;-11.09;50.83
44138;BME280;29800;55.942;37.314;2023-02-23T04:11:41;99504.84;;;-11.14;51.30
44138;BME280;29800;55.942;37.314;2023-02-23T04:14:39;99505.56;;;-11.12;51.30
44138;BME280;29800;55.942;37.314;2023-02-23T04:17:09;99506.03;;;-11.18;51.17
44138;BME280;29800;55.942;37.314;2023-02-23T04:19:36;99514.47;;;-11.13;51.38
44138;BME280;29800;55.942;37.314;2023-02-23T04:22:03;99513.16;;;-11.07;51.06
44138;BME280;29800;55.942;37.314;2023-02-23T04:24:29;99514.22;;;-11.10;50.49
44138;BME280;29800;55.942;37.314;2023-02-23T04:26:55;99513.00;;;-11.17;51.20
44138;BME280;29800;55.942;37.314;2023-02-23T04:29:21;99513.59;;;-11.25;51.34
44138;BME280;29800;55.942;37.314;2023-02-23T04:31:49;99513.81;;;-11.28;51.01
44138;BME280;29800;55.942;37.314;2023-02-23T04:34:15;99511.16;;;-11.28;51.51
44138;BME280;29800;55.942;37.314;2023-02-23T04:36:42;99513.31;;;-11.33;51.28
44138;BME280;29800;55.942;37.314;2023-02-23T04:39:08;99520.88;;;-11.40;51.16
44138;BME280;29800;55.942;37.314;2023-02-23T04:41:34;99513.81;;;-11.39;51.30
44138;BME280;29800;55.942;37.314;2023-02-23T04:44:00;99519.59;;;-11.34;51.29
44138;BME280;29800;55.942;37.314;2023-02-23T04:46:26;99518.75;;;-11.23;51.27
44138;BME280;29800;55.942;37.314;2023-02-23T04:48:52;99516.81;;;-11.21;51.00
44138;BME280;29800;55.942;37.314;2023-02-23T04:51:18;99516.56;;;-11.30;50.82
44138;BME280;29800;55.942;37.314;2023-02-23T04:53:44;99510.53;;;-11.43;50.82
44138;BME280;29800;55.942;37.314;2023-02-23T04:56:10;99526.44;;;-11.56;51.36
44138;BME280;29800;55.942;37.314;2023-02-23T04:58:36;99527.59;;;-11.47;51.39
44138;BME280;29800;55.942;37.314;2023-02-23T05:01:07;99523.75;;;-11.43;51.41
44138;BME280;29800;55.942;37.314;2023-02-23T05:03:34;99523.97;;;-11.46;51.48
44138;BME280;29800;55.942;37.314;2023-02-23T05:06:00;99522.91;;;-11.43;51.57
44138;BME280;29800;55.942;37.314;2023-02-23T05:08:27;99523.28;;;-11.37;51.05
44138;BME280;29800;55.942;37.314;2023-02-23T05:10:53;99534.56;;;-11.35;50.85
44138;BME280;29800;55.942;37.314;2023-02-23T05:13:19;99539.81;;;-11.46;51.25
44138;BME280;29800;55.942;37.314;2023-02-23T05:15:45;99548.59;;;-11.46;51.37
44138;BME280;29800;55.942;37.314;2023-02-23T05:18:11;99538.25;;;-11.49;51.19
44138;BME280;29800;55.942;37.314;2023-02-23T05:20:41;99545.34;;;-11.49;51.84
44138;BME280;29800;55.942;37.314;2023-02-23T05:23:10;99540.69;;;-11.46;51.33
44138;BME280;29800;55.942;37.314;2023-02-23T05:25:39;99545.53;;;-11.39;51.95
44138;BME280;29800;55.942;37.314;2023-02-23T05:28:05;99549.53;;;-11.22;51.32
44138;BME280;29800;55.942;37.314;2023-02-23T05:30:31;99549.34;;;-11.08;50.90
44138;BME280;29800;55.942;37.314;2023-02-23T05:32:58;99550.53;;;-11.01;50.85
44138;BME280;29800;55.942;37.314;2023-02-23T05:35:24;99555.59;;;-10.98;51.32
44138;BME280;29800;55.942;37.314;2023-02-23T05:37:50;99555.72;;;-10.99;51.07
44138;BME280;29800;55.942;37.314;2023-02-23T05:40:16;99559.31;;;-11.00;50.92
44138;BME280;29800;55.942;37.314;2023-02-23T05:42:42;99550.75;;;-11.04;50.88
44138;BME280;29800;55.942;37.314;2023-02-23T05:45:09;99553.06;;;-10.99;51.57
44138;BME280;29800;55.942;37.314;2023-02-23T05:47:35;99552.00;;;-10.97;51.30
44138;BME280;29800;55.942;37.314;2023-02-23T05:50:05;99552.97;;;-10.86;51.32
44138;BME280;29800;55.942;37.314;2023-02-23T05:52:31;99546.34;;;-10.81;50.94
44138;BME280;29800;55.942;37.314;2023-02-23T05:54:57;99551.66;;;-10.81;51.06
44138;BME280;29800;55.942;37.314;2023-02-23T05:57:23;99558.75;;;-10.81;51.63
44138;BME280;29800;55.942;37.314;2023-02-23T05:59:49;99559.50;;;-10.57;51.50
44138;BME280;29800;55.942;37.314;2023-02-23T06:02:15;99559.50;;;-10.45;50.74
44138;BME280;29800;55.942;37.314;2023-02-23T06:04:42;99559.50;;;-10.34;50.35
44138;BME280;29800;55.942;37.314;2023-02-23T06:07:08;99552.59;;;-10.25;50.43
44138;BME280;29800;55.942;37.314;2023-02-23T06:09:34;99560.41;;;-10.01;50.01
44138;BME280;29800;55.942;37.314;2023-02-23T06:12:00;99564.44;;;-9.86;50.11
44138;BME280;29800;55.942;37.314;2023-02-23T06:14:26;99577.69;;;-9.86;49.67
44138;BME280;29800;55.942;37.314;2023-02-23T06:16:53;99570.84;;;-9.88;49.79
44138;BME280;29800;55.942;37.314;2023-02-23T06:19:19;99575.63;;;-9.82;49.76
44138;BME280;29800;55.942;37.314;2023-02-23T06:21:45;99572.38;;;-9.74;50.06
44138;BME280;29800;55.942;37.314;2023-02-23T06:24:11;99576.16;;;-9.56;50.10
44138;BME280;29800;55.942;37.314;2023-02-23T06:26:37;99567.97;;;-9.53;49.94
44138;BME280;29800;55.942;37.314;2023-02-23T06:29:03;99571.56;;;-9.43;49.69
44138;BME280;29800;55.942;37.314;2023-02-23T06:31:29;99571.72;;;-9.23;49.77
44138;BME280;29800;55.942;37.314;2023-02-23T06:33:55;99570.72;;;-9.11;48.82
44138;BME280;29800;55.942;37.314;2023-02-23T06:36:22;99562.94;;;-9.02;49.77
44138;BME280;29800;55.942;37.314;2023-02-23T06:38:48;99575.63;;;-8.85;49.46
44138;BME280;29800;55.942;37.314;2023-02-23T06:41:14;99574.06;;;-8.66;48.82
44138;BME280;29800;55.942;37.314;2023-02-23T06:43:40;99581.13;;;-8.56;48.89
44138;BME280;29800;55.942;37.314;2023-02-23T06:46:06;99586.03;;;-8.51;48.39
44138;BME280;29800;55.942;37.314;2023-02-23T06:48:33;99576.38;;;-8.52;48.24
44138;BME280;29800;55.942;37.314;2023-02-23T06:51:00;99582.56;;;-8.42;48.31
44138;BME280;29800;55.942;37.314;2023-02-23T06:53:26;99583.53;;;-8.43;48.98
44138;BME280;29800;55.942;37.314;2023-02-23T06:55:52;99581.38;;;-8.59;48.76
44138;BME280;29800;55.942;37.314;2023-02-23T06:58:18;99583.84;;;-8.67;48.78
44138;BME280;29800;55.942;37.314;2023-02-23T07:00:44;99590.00;;;-8.66;49.17
44138;BME280;29800;55.942;37.314;2023-02-23T07:03:10;99597.00;;;-8.65;48.90
44138;BME280;29800;55.942;37.314;2023-02-23T07:05:36;99600.72;;;-8.47;48.80
44138;BME280;29800;55.942;37.314;2023-02-23T07:08:02;99601.13;;;-8.42;48.72
44138;BME280;29800;55.942;37.314;2023-02-23T07:10:29;99600.47;;;-8.44;49.17
44138;BME280;29800;55.942;37.314;2023-02-23T07:12:55;99598.22;;;-8.39;48.80
44138;BME280;29800;55.942;37.314;2023-02-23T07:15:21;99594.91;;;-8.31;49.01
44138;BME280;29800;55.942;37.314;2023-02-23T07:17:47;99599.84;;;-8.17;48.96
44138;BME280;29800;55.942;37.314;2023-02-23T07:20:14;99596.44;;;-7.98;48.63
44138;BME280;29800;55.942;37.314;2023-02-23T07:22:41;99609.63;;;-7.86;48.50
44138;BME280;29800;55.942;37.314;2023-02-23T07:25:07;99604.63;;;-7.70;48.30
44138;BME280;29800;55.942;37.314;2023-02-23T07:27:34;99607.75;;;-7.55;47.83
44138;BME280;29800;55.942;37.314;2023-02-23T07:30:01;99611.25;;;-7.45;47.90
44138;BME280;29800;55.942;37.314;2023-02-23T07:32:29;99612.41;;;-7.28;47.67
44138;BME280;29800;55.942;37.314;2023-02-23T07:34:55;99601.66;;;-7.16;47.47
44138;BME280;29800;55.942;37.314;2023-02-23T07:37:21;99612.72;;;-6.92;47.62
44138;BME280;29800;55.942;37.314;2023-02-23T07:39:47;99607.19;;;-6.71;46.58
44138;BME280;29800;55.942;37.314;2023-02-23T07:42:13;99605.25;;;-6.69;46.52
44138;BME280;29800;55.942;37.314;2023-02-23T07:44:39;99606.91;;;-6.58;46.70
44138;BME280;29800;55.942;37.314;2023-02-23T07:47:06;99615.16;;;-6.51;47.01
44138;BME280;29800;55.942;37.314;2023-02-23T07:49:33;99616.13;;;-6.42;46.31
44138;BME280;29800;55.942;37.314;2023-02-23T07:51:59;99609.22;;;-6.25;46.37
44138;BME280;29800;55.942;37.314;2023-02-23T07:54:25;99608.31;;;-6.06;45.96
44138;BME280;29800;55.942;37.314;2023-02-23T07:56:51;99612.25;;;-5.83;45.69
44138;BME280;29800;55.942;37.314;2023-02-23T07:59:17;99612.78;;;-5.51;46.01
44138;BME280;29800;55.942;37.314;2023-02-23T08:01:44;99612.50;;;-5.30;45.17
44138;BME280;29800;55.942;37.314;2023-02-23T08:04:10;99607.69;;;-5.27;44.43
44138;BME280;29800;55.942;37.314;2023-02-23T08:06:37;99601.16;;;-5.14;44.41
44138;BME280;29800;55.942;37.314;2023-02-23T08:09:03;99612.53;;;-4.94;44.25
44138;BME280;29800;55.942;37.314;2023-02-23T08:11:30;99604.66;;;-4.78;44.09
44138;BME280;29800;55.942;37.314;2023-02-23T08:13:57;99611.56;;;-4.49;44.16
44138;BME280;29800;55.942;37.314;2023-02-23T08:16:30;99605.09;;;-4.12;43.79
44138;BME280;29800;55.942;37.314;2023-02-23T08:18:57;99604.91;;;-3.84;42.74
44138;BME280;29800;55.942;37.314;2023-02-23T08:21:25;99607.97;;;-3.71;42.21
44138;BME280;29800;55.942;37.314;2023-02-23T08:23:52;99605.50;;;-3.56;41.80
44138;BME280;29800;55.942;37.314;2023-02-23T08:26:18;99605.59;;;-3.74;40.91
44138;BME280;29800;55.942;37.314;2023-02-23T08:28:44;99602.81;;;-3.64;41.01
44138;BME280;29800;55.942;37.314;2023-02-23T08:31:12;99610.63;;;-3.71;41.44
44138;BME280;29800;55.942;37.314;2023-02-23T08:33:39;99612.94;;;-3.84;41.06
44138;BME280;29800;55.942;37.314;2023-02-23T08:36:06;99610.44;;;-3.78;41.00
44138;BME280;29800;55.942;37.314;2023-02-23T08:38:33;99617.34;;;-3.67;41.27
44138;BME280;29800;55.942;37.314;2023-02-23T08:41:02;99616.06;;;-3.55;41.13
44138;BME280;29800;55.942;37.314;2023-02-23T08:43:28;99612.47;;;-3.29;41.40
44138;BME280;29800;55.942;37.314;2023-02-23T08:45:54;99607.50;;;-2.74;40.31
44138;BME280;29800;55.942;37.314;2023-02-23T08:48:20;99621.19;;;-2.20;39.41
44138;BME280;29800;55.942;37.314;2023-02-23T08:50:48;99606.16;;;-1.73;39.30
44138;BME280;29800;55.942;37.314;2023-02-23T08:53:17;99619.00;;;-1.21;38.44
44138;BME280;29800;55.942;37.314;2023-02-23T08:55:43;99628.16;;;-0.61;38.33
44138;BME280;29800;55.942;37.314;2023-02-23T08:58:10;99622.44;;;-0.43;36.86
44138;BME280;29800;55.942;37.314;2023-02-23T09:00:37;99617.84;;;-0.34;36.70
44138;BME280;29800;55.942;37.314;2023-02-23T09:03:04;99607.69;;;0.06;36.96
44138;BME280;29800;55.942;37.314;2023-02-23T09:05:32;99602.66;;;0.48;35.86
44138;BME280;29800;55.942;37.314;2023-02-23T09:07:58;99604.75;;;0.82;35.23
44138;BME280;29800;55.942;37.314;2023-02-23T09:10:24;99599.75;;;1.01;34.80
44138;BME280;29800;55.942;37.314;2023-02-23T09:12:53;99601.75;;;1.35;34.85
44138;BME280;29800;55.942;37.314;2023-02-23T09:15:20;99593.78;;;1.77;33.81
44138;BME280;29800;55.942;37.314;2023-02-23T09:17:47;99599.00;;;2.07;33.46
44138;BME280;29800;55.942;37.314;2023-02-23T09:20:15;99595.69;;;2.18;33.46
44138;BME280;29800;55.942;37.314;2023-02-23T09:22:42;99593.56;;;2.42;32.48
44138;BME280;29800;55.942;37.314;2023-02-23T09:25:17;99596.66;;;2.38;32.46
44138;BME280;29800;55.942;37.314;2023-02-23T09:27:48;99598.94;;;2.35;32.09
44138;BME280;29800;55.942;37.314;2023-02-23T09:30:15;99597.13;;;2.49;32.50
44138;BME280;29800;55.942;37.314;2023-02-23T09:32:49;99590.47;;;2.45;32.30
44138;BME280;29800;55.942;37.314;2023-02-23T09:35:17;99597.09;;;2.42;32.24
44138;BME280;29800;55.942;37.314;2023-02-23T09:37:46;99589.16;;;2.34;31.56
44138;BME280;29800;55.942;37.314;2023-02-23T09:40:18;99589.41;;;2.46;32.36
44138;BME280;29800;55.942;37.314;2023-02-23T09:43:18;99590.47;;;2.45;33.06
44138;BME280;29800;55.942;37.314;2023-02-23T09:45:51;99576.28;;;2.01;31.42
44138;BME280;29800;55.942;37.314;2023-02-23T09:48:21;99581.81;;;1.86;32.02
44138;BME280;29800;55.942;37.314;2023-02-23T09:50:50;99574.97;;;1.62;31.92
44138;BME280;29800;55.942;37.314;2023-02-23T09:55:55;99579.50;;;0.90;32.93
44138;BME280;29800;55.942;37.314;2023-02-23T09:58:28;99577.53;;;0.77;33.26
44138;BME280;29800;55.942;37.314;2023-02-23T10:06:39;99582.63;;;0.72;33.36
44138;BME280;29800;55.942;37.314;2023-02-23T10:12:01;99579.25;;;0.48;33.53
44138;BME280;29800;55.942;37.314;2023-02-23T10:17:20;99591.91;;;0.03;34.04
44138;BME280;29800;55.942;37.314;2023-02-23T10:22:34;99580.53;;;-0.52;34.90
44138;BME280;29800;55.942;37.314;2023-02-23T10:25:06;99587.66;;;-0.82;34.90
44138;BME280;29800;55.942;37.314;2023-02-23T10:27:39;99587.47;;;-1.04;35.63
44138;BME280;29800;55.942;37.314;2023-02-23T10:32:58;99581.56;;;-0.76;35.76
44138;BME280;29800;55.942;37.314;2023-02-23T10:35:27;99582.50;;;-0.69;35.33
44138;BME280;29800;55.942;37.314;2023-02-23T10:37:55;99570.94;;;-0.69;35.37
44138;BME280;29800;55.942;37.314;2023-02-23T10:40:24;99582.47;;;-0.61;35.50
44138;BME280;29800;55.942;37.314;2023-02-23T10:42:53;99564.69;;;-0.47;35.79
44138;BME280;29800;55.942;37.314;2023-02-23T10:45:22;99573.84;;;-0.41;35.11
44138;BME280;29800;55.942;37.314;2023-02-23T10:50:17;99566.44;;;-0.77;34.87
44138;BME280;29800;55.942;37.314;2023-02-23T10:52:48;99569.13;;;-0.77;34.87
44138;BME280;29800;55.942;37.314;2023-02-23T10:55:33;99559.91;;;-0.60;35.15
44138;BME280;29800;55.942;37.314;2023-02-23T10:58:26;99559.81;;;-0.66;35.41
44138;BME280;29800;55.942;37.314;2023-02-23T11:00:56;99570.72;;;-0.83;35.00
44138;BME280;29800;55.942;37.314;2023-02-23T11:03:35;99559.34;;;-0.70;35.30
44138;BME280;29800;55.942;37.314;2023-02-23T11:06:03;99562.22;;;-0.71;34.98
44138;BME280;29800;55.942;37.314;2023-02-23T11:08:34;99565.81;;;-0.79;34.89
44138;BME280;29800;55.942;37.314;2023-02-23T11:13:45;99568.91;;;-1.37;35.97
44138;BME280;29800;55.942;37.314;2023-02-23T11:16:14;99564.41;;;-1.44;36.11
44138;BME280;29800;55.942;37.314;2023-02-23T11:19:12;99559.38;;;-1.16;36.22
44138;BME280;29800;55.942;37.314;2023-02-23T11:21:50;99562.13;;;-1.24;35.76
44138;BME280;29800;55.942;37.314;2023-02-23T11:24:33;99560.13;;;-1.31;35.44
44138;BME280;29800;55.942;37.314;2023-02-23T11:27:03;99552.06;;;-1.31;35.42
44138;BME280;29800;55.942;37.314;2023-02-23T11:29:33;99553.78;;;-1.38;35.59
44138;BME280;29800;55.942;37.314;2023-02-23T11:32:15;99553.13;;;-1.40;36.27
44138;BME280;29800;55.942;37.314;2023-02-23T11:34:45;99556.34;;;-1.44;36.65
44138;BME280;29800;55.942;37.314;2023-02-23T11:39:56;99549.22;;;-1.29;37.56
44138;BME280;29800;55.942;37.314;2023-02-23T11:42:24;99551.06;;;-1.30;36.72
44138;BME280;29800;55.942;37.314;2023-02-23T11:45:05;99557.09;;;-1.04;36.77
44138;BME280;29800;55.942;37.314;2023-02-23T11:47:33;99555.53;;;-0.99;36.59
44138;BME280;29800;55.942;37.314;2023-02-23T11:50:06;99544.44;;;-0.96;36.14
44138;BME280;29800;55.942;37.314;2023-02-23T11:52:33;99541.94;;;-0.97;35.80
44138;BME280;29800;55.942;37.314;2023-02-23T11:55:04;99548.16;;;-0.97;35.98
44138;BME280;29800;55.942;37.314;2023-02-23T11:57:34;99540.28;;;-1.21;35.85
44138;BME280;29800;55.942;37.314;2023-02-23T12:00:10;99540.84;;;-1.34;36.48
44138;BME280;29800;55.942;37.314;2023-02-23T12:02:57;99534.28;;;-1.32;36.68
44138;BME280;29800;55.942;37.314;2023-02-23T12:05:30;99535.38;;;-1.41;36.78
44138;BME280;29800;55.942;37.314;2023-02-23T12:08:15;99527.63;;;-1.13;36.74
44138;BME280;29800;55.942;37.314;2023-02-23T12:10:47;99539.38;;;-1.14;36.67
44138;BME280;29800;55.942;37.314;2023-02-23T12:20:54;99535.84;;;-1.69;37.58
44138;BME280;29800;55.942;37.314;2023-02-23T12:23:25;99526.56;;;-1.58;36.99
44138;BME280;29800;55.942;37.314;2023-02-23T12:26:00;99536.84;;;-1.38;37.21
44138;BME280;29800;55.942;37.314;2023-02-23T12:28:44;99533.56;;;-1.25;36.96
44138;BME280;29800;55.942;37.314;2023-02-23T12:31:26;99539.31;;;-1.28;37.05
44138;BME280;29800;55.942;37.314;2023-02-23T12:34:13;99542.28;;;-1.23;37.04
44138;BME280;29800;55.942;37.314;2023-02-23T12:36:47;99552.19;;;-1.47;37.19
44138;BME280;29800;55.942;37.314;2023-02-23T12:39:30;99552.22;;;-1.55;37.34
44138;BME280;29800;55.942;37.314;2023-02-23T12:42:15;99554.22;;;-1.49;37.26
44138;BME280;29800;55.942;37.314;2023-02-23T12:44:48;99559.19;;;-1.46;37.49
44138;BME280;29800;55.942;37.314;2023-02-23T12:47:43;99559.44;;;-1.24;37.32
44138;BME280;29800;55.942;37.314;2023-02-23T12:55:54;99554.47;;;-2.15;38.25
44138;BME280;29800;55.942;37.314;2023-02-23T13:06:49;99550.38;;;-2.50;39.53
44138;BME280;29800;55.942;37.314;2023-02-23T13:15:12;99551.88;;;-2.56;39.34
44138;BME280;29800;55.942;37.314;2023-02-23T13:20:31;99555.94;;;-2.68;40.26
44138;BME280;29800;55.942;37.314;2023-02-23T13:26:06;99561.94;;;-2.66;39.90
44138;BME280;29800;55.942;37.314;2023-02-23T13:31:24;99557.78;;;-2.85;39.99
44138;BME280;29800;55.942;37.314;2023-02-23T13:33:53;99561.47;;;-2.94;40.26
44138;BME280;29800;55.942;37.314;2023-02-23T13:36:21;99556.41;;;-3.14;40.81
44138;BME280;29800;55.942;37.314;2023-02-23T13:38:55;99548.38;;;-3.30;41.09
44138;BME280;29800;55.942;37.314;2023-02-23T13:41:40;99550.56;;;-3.26;41.23
44138;BME280;29800;55.942;37.314;2023-02-23T13:44:22;99551.72;;;-3.20;41.19
44138;BME280;29800;55.942;37.314;2023-02-23T13:52:37;99558.59;;;-3.18;41.12
44138;BME280;29800;55.942;37.314;2023-02-23T13:55:44;99548.06;;;-3.19;41.01
44138;BME280;29800;55.942;37.314;2023-02-23T13:58:20;99554.84;;;-3.49;41.57
44138;BME280;29800;55.942;37.314;2023-02-23T14:03:34;99554.94;;;-3.76;41.98
44138;BME280;29800;55.942;37.314;2023-02-23T14:06:03;99551.72;;;-3.88;41.99
44138;BME280;29800;55.942;37.314;2023-02-23T14:08:36;99541.16;;;-3.97;42.62
44138;BME280;29800;55.942;37.314;2023-02-23T14:11:05;99546.50;;;-3.97;42.40
44138;BME280;29800;55.942;37.314;2023-02-23T14:13:38;99546.00;;;-4.01;42.63
44138;BME280;29800;55.942;37.314;2023-02-23T14:16:18;99540.66;;;-4.01;42.51
44138;BME280;29800;55.942;37.314;2023-02-23T14:19:12;99546.31;;;-4.04;42.50
44138;BME280;29800;55.942;37.314;2023-02-23T14:21:47;99543.91;;;-4.15;42.44
44138;BME280;29800;55.942;37.314;2023-02-23T14:24:23;99536.38;;;-4.20;42.52
44138;BME280;29800;55.942;37.314;2023-02-23T14:27:20;99542.63;;;-4.11;42.88
44138;BME280;29800;55.942;37.314;2023-02-23T14:32:37;99539.78;;;-4.10;43.00
44138;BME280;29800;55.942;37.314;2023-02-23T14:35:04;99526.53;;;-4.19;42.68
44138;BME280;29800;55.942;37.314;2023-02-23T14:37:37;99526.66;;;-4.29;42.67
44138;BME280;29800;55.942;37.314;2023-02-23T14:40:20;99523.50;;;-4.25;43.20
44138;BME280;29800;55.942;37.314;2023-02-23T14:42:52;99527.75;;;-4.40;43.41
44138;BME280;29800;55.942;37.314;2023-02-23T14:45:24;99516.00;;;-4.55;43.19
44138;BME280;29800;55.942;37.314;2023-02-23T14:48:14;99517.59;;;-4.63;43.75
44138;BME280;29800;55.942;37.314;2023-02-23T14:50:43;99519.44;;;-4.63;43.56
44138;BME280;29800;55.942;37.314;2023-02-23T14:53:17;99510.66;;;-4.55;43.45